Time;durP1;ratioP1;P1;durP2;ratioP2;P2;SDS_P1;SDS_P2;PMS_P1;PMS_P2;Temp;Humidity;BMP_temperature;BMP_pressure;BME280_temperature;BME280_humidity;BME280_pressure;Samples;Min_cycle;Max_cycle;Signal;HPM_P1;HPM_P2
2023/01/08 00:02:09;;;;;;;21.20;3.40;;;;;;;5.74;100.00;99335.16;5065200;28;20028;-73
2023/01/08 00:04:34;;;;;;;15.95;2.70;;;;;;;5.74;100.00;99326.91;5074259;28;20063;-73
2023/01/08 00:07:00;;;;;;;15.93;2.72;;;;;;;5.74;100.00;99328.81;5094762;28;20464;-72
2023/01/08 00:09:25;;;;;;;12.43;2.38;;;;;;;5.74;100.00;99324.16;5077885;28;20028;-72
2023/01/08 00:11:51;;;;;;;15.80;2.80;;;;;;;5.79;100.00;99323.25;5077720;28;20035;-72
2023/01/08 00:14:16;;;;;;;13.02;2.13;;;;;;;5.79;100.00;99314.97;5057416;28;20477;-73
2023/01/08 00:16:42;;;;;;;11.98;2.30;;;;;;;5.78;100.00;99311.41;5070119;28;20035;-73
2023/01/08 00:19:07;;;;;;;11.52;2.10;;;;;;;5.75;100.00;99312.00;5074423;28;20040;-72
2023/01/08 00:21:33;;;;;;;12.23;2.28;;;;;;;5.74;100.00;99302.09;5074078;28;20094;-73
2023/01/08 00:23:58;;;;;;;11.15;2.22;;;;;;;5.76;100.00;99304.56;5059622;28;20102;-72
2023/01/08 00:26:24;;;;;;;17.15;2.72;;;;;;;5.71;100.00;99297.19;5060768;28;20081;-73
2023/01/08 00:28:49;;;;;;;10.60;1.83;;;;;;;5.70;100.00;99294.69;5095503;28;20029;-73
2023/01/08 00:31:15;;;;;;;9.75;2.03;;;;;;;5.70;100.00;99290.00;5094345;28;20024;-72
2023/01/08 00:33:40;;;;;;;11.32;1.63;;;;;;;5.69;100.00;99293.06;5047906;28;20032;-72
2023/01/08 00:36:07;;;;;;;8.88;2.28;;;;;;;5.71;100.00;99288.06;5081210;28;20040;-73
2023/01/08 00:38:33;;;;;;;11.10;2.13;;;;;;;5.68;100.00;99292.22;5081558;28;20060;-73
2023/01/08 00:40:58;;;;;;;10.48;1.90;;;;;;;5.66;100.00;99286.22;5099378;28;20043;-73
2023/01/08 00:43:24;;;;;;;8.40;1.85;;;;;;;5.68;100.00;99291.41;5078609;28;20028;-72
2023/01/08 00:45:52;;;;;;;9.20;1.88;;;;;;;5.68;100.00;99280.38;5089425;28;20036;-72
2023/01/08 00:48:18;;;;;;;13.98;1.83;;;;;;;5.63;100.00;99278.53;5081287;28;20372;-72
2023/01/08 00:50:43;;;;;;;11.52;1.80;;;;;;;5.62;100.00;99284.31;5081559;28;20055;-73
2023/01/08 00:53:09;;;;;;;5.43;1.30;;;;;;;5.61;100.00;99280.75;5081131;28;20434;-72
2023/01/08 00:55:34;;;;;;;9.70;1.55;;;;;;;5.59;100.00;99281.03;5099536;28;20487;-73
2023/01/08 00:58:00;;;;;;;8.20;1.67;;;;;;;5.58;100.00;99273.06;5098103;28;20028;-73
2023/01/08 01:00:25;;;;;;;8.80;1.40;;;;;;;5.58;100.00;99273.06;5098411;28;20032;-72
2023/01/08 01:02:51;;;;;;;8.40;1.75;;;;;;;5.56;100.00;99276.09;5097720;28;20028;-72
2023/01/08 01:05:16;;;;;;;9.50;1.50;;;;;;;5.60;100.00;99279.94;5077889;28;20024;-73
2023/01/08 01:07:42;;;;;;;9.45;1.50;;;;;;;5.58;100.00;99290.41;5077715;28;20031;-72
2023/01/08 01:10:09;;;;;;;12.77;1.85;;;;;;;5.62;100.00;99298.91;5098038;28;20035;-72
2023/01/08 01:12:36;;;;;;;11.20;1.45;;;;;;;5.64;100.00;99304.94;5098779;28;20028;-73
2023/01/08 01:15:01;;;;;;;7.95;1.33;;;;;;;5.63;100.00;99313.50;5097807;28;20039;-72
2023/01/08 01:17:27;;;;;;;9.27;1.45;;;;;;;5.63;100.00;99341.88;5097803;28;20034;-72
2023/01/08 01:19:52;;;;;;;12.13;1.83;;;;;;;5.65;100.00;99366.38;5064262;28;20028;-73
2023/01/08 01:22:18;;;;;;;15.18;1.60;;;;;;;5.66;100.00;99357.00;5064083;28;20043;-72
2023/01/08 01:24:43;;;;;;;8.93;1.90;;;;;;;5.66;100.00;99334.97;5069484;28;20660;-73
2023/01/08 01:27:09;;;;;;;8.20;1.40;;;;;;;5.70;100.00;99319.50;5077282;28;20054;-73
2023/01/08 01:29:34;;;;;;;9.95;1.90;;;;;;;5.70;100.00;99322.25;5089106;28;20032;-73
2023/01/08 01:32:00;;;;;;;9.52;1.65;;;;;;;5.72;100.00;99311.75;5080482;28;20024;-73
2023/01/08 01:34:25;;;;;;;8.55;1.50;;;;;;;5.75;100.00;99280.88;5097648;28;20674;-72
2023/01/08 01:36:51;;;;;;;8.43;1.42;;;;;;;5.75;100.00;99276.19;5096802;28;20085;-73
2023/01/08 01:39:18;;;;;;;3.85;1.05;;;;;;;5.76;100.00;99266.78;5080700;28;20040;-72
2023/01/08 01:41:44;;;;;;;7.05;1.17;;;;;;;5.80;100.00;99264.28;5077229;28;20170;-73
2023/01/08 01:44:41;;;;;;;5.75;1.00;;;;;;;5.78;100.00;99266.50;5066935;28;20107;-73
2023/01/08 01:47:18;;;;;;;9.68;1.58;;;;;;;5.80;100.00;99264.28;5085024;28;20169;-73
2023/01/08 01:49:52;;;;;;;6.47;1.02;;;;;;;5.85;100.00;99269.75;5098185;28;20055;-72
2023/01/08 01:52:19;;;;;;;4.97;1.30;;;;;;;5.82;100.00;99267.56;5048562;28;20024;-73
2023/01/08 01:54:45;;;;;;;7.65;1.23;;;;;;;5.80;100.00;99258.78;5081427;28;20032;-72
2023/01/08 01:57:10;;;;;;;6.40;1.13;;;;;;;5.76;100.00;99258.53;5082537;28;20032;-72
2023/01/08 01:59:36;;;;;;;4.60;0.80;;;;;;;5.74;100.00;99255.28;5065439;28;20025;-73
2023/01/08 02:02:01;;;;;;;4.88;1.05;;;;;;;5.72;100.00;99248.41;5077641;28;20032;-72
2023/01/08 02:04:27;;;;;;;5.38;0.80;;;;;;;5.71;100.00;99253.09;5048969;28;20028;-72
2023/01/08 02:07:07;;;;;;;4.20;0.85;;;;;;;5.65;100.00;99243.22;5079328;28;20694;-73
2023/01/08 02:09:34;;;;;;;5.88;0.70;;;;;;;5.63;100.00;99252.91;5099349;28;20036;-73
2023/01/08 02:12:18;;;;;;;5.93;0.80;;;;;;;5.63;100.00;99247.38;5096945;28;20357;-73
2023/01/08 02:15:23;;;;;;;8.05;1.13;;;;;;;5.55;100.00;99254.38;5096228;28;20119;-73
2023/01/08 02:18:01;;;;;;;4.35;0.93;;;;;;;5.53;100.00;99260.16;5096158;28;20400;-72
2023/01/08 02:20:33;;;;;;;5.07;0.77;;;;;;;5.49;100.00;99259.13;5079390;28;20472;-73
2023/01/08 02:23:14;;;;;;;2.70;0.75;;;;;;;5.46;100.00;99248.69;5080242;28;20068;-73
2023/01/08 02:25:51;;;;;;;2.47;0.70;;;;;;;5.42;100.00;99264.13;5062947;28;20468;-73
2023/01/08 02:28:17;;;;;;;0.80;0.50;;;;;;;5.40;100.00;99258.09;5096258;28;20031;-73
2023/01/08 02:30:42;;;;;;;5.38;0.70;;;;;;;5.32;100.00;99256.81;5079426;28;20089;-72
2023/01/08 02:33:08;;;;;;;4.18;0.80;;;;;;;5.30;100.00;99260.97;5090042;28;20029;-72
2023/01/08 02:35:39;;;;;;;2.15;0.60;;;;;;;5.29;100.00;99265.66;5096346;28;20047;-73
2023/01/08 02:38:05;;;;;;;5.00;0.80;;;;;;;5.26;100.00;99268.94;5046178;28;20055;-73
2023/01/08 02:40:37;;;;;;;3.95;0.80;;;;;;;5.24;100.00;99270.38;5062958;28;20027;-73
2023/01/08 02:43:13;;;;;;;4.47;0.93;;;;;;;5.19;100.00;99267.66;5062696;28;20032;-72
2023/01/08 02:45:49;;;;;;;2.65;0.80;;;;;;;5.19;100.00;99264.91;5071695;28;20028;-72
2023/01/08 02:48:18;;;;;;;8.02;1.20;;;;;;;5.12;100.00;99263.28;5040380;28;20035;-73
2023/01/08 02:50:59;;;;;;;4.10;0.70;;;;;;;5.14;100.00;99268.53;5088766;28;20032;-72
2023/01/08 02:53:30;;;;;;;4.40;0.75;;;;;;;5.09;100.00;99266.63;5079307;28;20028;-73
2023/01/08 02:55:59;;;;;;;2.15;0.60;;;;;;;5.05;100.00;99262.00;5045200;28;20032;-72
2023/01/08 02:58:25;;;;;;;2.40;0.65;;;;;;;5.01;100.00;99261.72;5079133;28;20025;-73
2023/01/08 03:00:50;;;;;;;8.95;1.08;;;;;;;5.00;100.00;99253.78;5078864;28;20028;-72
2023/01/08 03:03:16;;;;;;;6.45;0.95;;;;;;;4.96;100.00;99258.19;5078971;28;20434;-73
2023/01/08 03:05:43;;;;;;;6.82;1.45;;;;;;;4.91;100.00;99259.09;5076750;28;20036;-72
2023/01/08 03:08:09;;;;;;;7.38;1.25;;;;;;;4.89;100.00;99255.78;5078939;28;20024;-73
2023/01/08 03:10:34;;;;;;;5.97;1.20;;;;;;;4.85;100.00;99252.81;5095551;28;20081;-72
2023/01/08 03:13:21;;;;;;;9.50;1.20;;;;;;;4.84;100.00;99262.16;5078622;28;20023;-73
2023/01/08 03:15:50;;;;;;;6.00;1.00;;;;;;;4.83;100.00;99256.94;5066275;28;20544;-73
2023/01/08 03:18:19;;;;;;;7.75;0.88;;;;;;;4.77;100.00;99250.66;5045718;28;20521;-72
2023/01/08 03:20:45;;;;;;;6.78;1.10;;;;;;;4.78;100.00;99256.97;5045187;28;20079;-72
2023/01/08 03:23:10;;;;;;;7.55;0.93;;;;;;;4.74;100.00;99245.75;5061751;28;20103;-72
2023/01/08 03:25:37;;;;;;;10.90;2.20;;;;;;;4.67;100.00;99246.03;5081286;28;20032;-73
2023/01/08 03:28:04;;;;;;;9.93;2.15;;;;;;;4.68;100.00;99244.94;5078203;28;20020;-73
2023/01/08 03:30:30;;;;;;;8.75;1.80;;;;;;;4.67;100.00;99231.47;5068580;28;20065;-72
2023/01/08 03:32:58;;;;;;;10.55;2.10;;;;;;;4.63;100.00;99235.91;5069911;28;20055;-73
2023/01/08 03:35:23;;;;;;;8.63;1.52;;;;;;;4.60;100.00;99231.00;5078406;28;20036;-73
2023/01/08 03:37:54;;;;;;;14.57;1.73;;;;;;;4.59;100.00;99229.31;5074795;28;20511;-73
2023/01/08 03:40:22;;;;;;;6.55;1.52;;;;;;;4.59;100.00;99229.31;5077780;28;20040;-72
2023/01/08 03:42:49;;;;;;;9.18;1.52;;;;;;;4.59;100.00;99229.31;5045218;28;20476;-73
2023/01/08 03:45:14;;;;;;;8.23;1.63;;;;;;;4.58;100.00;99227.69;5061348;28;20032;-72
2023/01/08 03:47:40;;;;;;;6.07;1.75;;;;;;;4.56;100.00;99230.72;5096397;28;20024;-73
2023/01/08 03:50:07;;;;;;;7.68;1.80;;;;;;;4.57;100.00;99232.38;5078044;28;20024;-72
2023/01/08 03:52:33;;;;;;;11.38;2.20;;;;;;;4.56;100.00;99227.97;5078122;28;20031;-73
2023/01/08 03:54:58;;;;;;;7.95;1.77;;;;;;;4.61;100.00;99229.88;5077887;28;20032;-73
2023/01/08 03:57:24;;;;;;;7.20;1.38;;;;;;;4.61;100.00;99238.94;5044681;28;20028;-72
2023/01/08 03:59:49;;;;;;;7.55;1.55;;;;;;;4.63;100.00;99235.91;5044277;28;20055;-72
2023/01/08 04:02:15;;;;;;;8.93;1.80;;;;;;;4.64;100.00;99229.31;5072728;28;20033;-72
2023/01/08 04:04:40;;;;;;;7.55;1.90;;;;;;;4.64;100.00;99232.88;5094703;28;20020;-73
2023/01/08 04:07:06;;;;;;;5.95;1.60;;;;;;;4.65;100.00;99239.19;5060914;28;20036;-73
2023/01/08 04:09:32;;;;;;;7.40;1.15;;;;;;;4.66;100.00;99241.66;5094625;28;20028;-73
2023/01/08 04:11:57;;;;;;;11.32;2.33;;;;;;;4.67;100.00;99243.28;5091101;28;20024;-72
2023/01/08 04:14:22;;;;;;;7.80;1.83;;;;;;;4.70;100.00;99250.97;5057311;28;20032;-73
2023/01/08 04:16:48;;;;;;;12.43;2.40;;;;;;;4.74;100.00;99247.66;5052795;28;20476;-72
2023/01/08 04:19:13;;;;;;;7.43;1.63;;;;;;;4.77;100.00;99247.91;5094305;28;20035;-72
2023/01/08 04:21:39;;;;;;;5.80;1.55;;;;;;;4.83;100.00;99245.94;5044372;28;20073;-72
2023/01/08 04:24:05;;;;;;;6.05;2.05;;;;;;;4.82;100.00;99242.38;5076884;28;20504;-72
2023/01/08 04:26:30;;;;;;;8.25;1.92;;;;;;;4.89;100.00;99236.53;5070435;28;20043;-73
2023/01/08 04:28:56;;;;;;;7.05;1.77;;;;;;;4.87;100.00;99236.00;5078724;28;20023;-73
2023/01/08 04:31:21;;;;;;;11.10;2.78;;;;;;;4.85;100.00;99229.97;5080338;28;20032;-72
2023/01/08 04:33:47;;;;;;;12.85;2.70;;;;;;;4.85;100.00;99235.47;5098069;28;20504;-72
2023/01/08 04:36:12;;;;;;;13.20;2.67;;;;;;;4.85;100.00;99243.72;5096905;28;20043;-72
2023/01/08 04:38:38;;;;;;;12.15;2.40;;;;;;;4.85;100.00;99232.72;5078100;28;20043;-73
2023/01/08 04:41:04;;;;;;;13.05;2.42;;;;;;;4.83;100.00;99230.25;5077480;28;20027;-72
2023/01/08 04:43:30;;;;;;;12.50;2.35;;;;;;;4.77;100.00;99214.91;5059998;28;20020;-73
2023/01/08 04:46:02;;;;;;;10.77;2.30;;;;;;;4.75;100.00;99222.63;5060758;28;20031;-72
2023/01/08 04:48:28;;;;;;;;;;;;;;;4.73;100.00;99219.31;5078146;28;20028;-72
2023/01/08 04:50:53;;;;;;;7.43;2.20;;;;;;;4.70;100.00;99220.72;5095578;28;19937;-72
2023/01/08 04:53:19;;;;;;;13.65;2.13;;;;;;;4.72;100.00;99220.44;5094182;28;20020;-72
2023/01/08 04:55:45;;;;;;;8.50;2.03;;;;;;;4.65;100.00;99215.28;5077473;28;20093;-73
2023/01/08 04:58:10;;;;;;;11.68;1.90;;;;;;;4.62;100.00;99212.25;5077063;28;20043;-73
2023/01/08 05:00:37;;;;;;;6.57;1.80;;;;;;;4.60;100.00;99207.06;5077252;28;20064;-72
2023/01/08 05:03:03;;;;;;;11.13;2.38;;;;;;;4.64;100.00;99201.81;5077368;28;20024;-72
2023/01/08 05:05:28;;;;;;;10.38;2.60;;;;;;;4.56;100.00;99200.47;5057369;28;20029;-72
2023/01/08 05:07:54;;;;;;;13.38;2.58;;;;;;;4.56;100.00;99197.72;5094061;28;20039;-72
2023/01/08 05:10:19;;;;;;;8.77;1.95;;;;;;;4.52;100.00;99202.16;5057007;28;20031;-72
2023/01/08 05:12:45;;;;;;;8.80;1.95;;;;;;;4.49;100.00;99200.00;5059164;28;20569;-72
2023/01/08 05:15:10;;;;;;;10.93;2.08;;;;;;;4.45;100.00;99194.22;5095172;28;20035;-72
2023/01/08 05:17:36;;;;;;;12.00;2.50;;;;;;;4.43;100.00;99201.97;5094063;28;20035;-72
2023/01/08 05:20:01;;;;;;;9.25;2.75;;;;;;;4.47;100.00;99194.75;5060794;28;20048;-72
2023/01/08 05:22:27;;;;;;;14.82;2.70;;;;;;;4.41;100.00;99200.59;5048126;28;20082;-72
2023/01/08 05:24:52;;;;;;;13.85;2.13;;;;;;;4.37;100.00;99199.50;5053359;28;20044;-73
2023/01/08 05:27:18;;;;;;;10.48;1.85;;;;;;;4.35;100.00;99201.75;5048162;28;20397;-72
2023/01/08 05:29:43;;;;;;;11.85;2.10;;;;;;;4.31;100.00;99192.41;5080507;28;20028;-72
2023/01/08 05:32:13;;;;;;;13.98;2.60;;;;;;;4.32;100.00;99192.13;5063915;28;20065;-72
2023/01/08 05:34:39;;;;;;;12.57;2.72;;;;;;;4.33;100.00;99192.94;5064102;28;20054;-72
2023/01/08 05:37:04;;;;;;;12.30;2.70;;;;;;;4.34;100.00;99189.91;5080354;28;20048;-72
2023/01/08 05:39:30;;;;;;;11.85;2.03;;;;;;;4.35;100.00;99186.06;5063712;28;20028;-72
2023/01/08 05:41:55;;;;;;;14.13;2.22;;;;;;;4.36;100.00;99184.13;5080095;28;20032;-72
2023/01/08 05:44:21;;;;;;;11.25;1.95;;;;;;;4.36;100.00;99187.69;5079862;28;20027;-72
2023/01/08 05:46:47;;;;;;;15.32;2.20;;;;;;;4.38;100.00;99181.94;5063546;28;20036;-72
2023/01/08 05:49:12;;;;;;;14.05;2.40;;;;;;;4.41;100.00;99178.59;5063939;28;20145;-72
2023/01/08 05:51:38;;;;;;;12.40;2.10;;;;;;;4.41;100.00;99178.59;5046878;28;20024;-72
2023/01/08 05:54:03;;;;;;;9.63;2.50;;;;;;;4.46;100.00;99175.81;5098424;28;20034;-72
2023/01/08 05:56:29;;;;;;;15.25;2.72;;;;;;;4.46;100.00;99175.81;5043708;28;20068;-72
2023/01/08 05:58:54;;;;;;;8.90;2.00;;;;;;;4.45;100.00;99168.66;5059832;28;20028;-73
2023/01/08 06:01:20;;;;;;;14.45;2.38;;;;;;;4.47;100.00;99166.47;5061879;28;20431;-72
2023/01/08 06:03:45;;;;;;;12.20;2.15;;;;;;;4.47;100.00;99166.47;5089995;28;20443;-72
2023/01/08 06:06:11;;;;;;;13.77;2.13;;;;;;;4.45;100.00;99169.47;5063331;28;20031;-72
2023/01/08 06:08:36;;;;;;;13.77;2.05;;;;;;;4.40;100.00;99157.69;5063276;28;20028;-72
2023/01/08 06:11:05;;;;;;;11.40;1.90;;;;;;;4.41;100.00;99162.94;5097002;28;20101;-72
2023/01/08 06:13:31;;;;;;;14.90;1.92;;;;;;;4.41;100.00;99162.13;5062886;28;20020;-72
2023/01/08 06:16:00;;;;;;;15.05;2.10;;;;;;;4.38;100.00;99163.50;5079670;28;20031;-73
2023/01/08 06:18:26;;;;;;;10.88;1.77;;;;;;;4.36;100.00;99153.91;5062938;28;20028;-73
2023/01/08 06:20:51;;;;;;;12.63;1.77;;;;;;;4.36;100.00;99149.22;5076455;28;20093;-72
2023/01/08 06:23:17;;;;;;;11.82;2.10;;;;;;;4.36;100.00;99159.41;5055353;28;20024;-73
2023/01/08 06:25:42;;;;;;;8.45;1.52;;;;;;;4.37;100.00;99148.09;5042727;28;20035;-72
2023/01/08 06:28:08;;;;;;;15.07;2.00;;;;;;;4.34;100.00;99145.09;5072052;28;20385;-72
2023/01/08 06:30:33;;;;;;;13.68;1.58;;;;;;;4.31;100.00;99143.75;5078365;28;20038;-72
2023/01/08 06:32:59;;;;;;;15.77;1.73;;;;;;;4.34;100.00;99145.09;5046267;28;20092;-73
2023/01/08 06:35:25;;;;;;;10.18;1.27;;;;;;;4.30;100.00;99139.38;5096259;28;20027;-72
2023/01/08 06:37:51;;;;;;;16.90;1.90;;;;;;;4.28;100.00;99133.34;5045770;28;20084;-73
2023/01/08 06:40:16;;;;;;;7.78;1.40;;;;;;;4.28;100.00;99130.59;5079122;28;20032;-73
2023/01/08 06:42:43;;;;;;;12.68;1.70;;;;;;;4.28;100.00;99129.78;5095970;28;20165;-73
2023/01/08 06:45:09;;;;;;;13.70;1.58;;;;;;;4.28;100.00;99140.75;5059366;28;20043;-73
2023/01/08 06:47:34;;;;;;;13.15;1.83;;;;;;;4.28;100.00;99138.00;5055246;28;20499;-73
2023/01/08 06:50:00;;;;;;;12.50;2.22;;;;;;;4.25;100.00;99136.66;5079094;28;20032;-72
2023/01/08 06:52:25;;;;;;;10.70;1.77;;;;;;;4.27;100.00;99131.69;5079397;28;20024;-72
2023/01/08 06:54:51;;;;;;;10.05;1.08;;;;;;;4.28;100.00;99124.28;5082840;28;20062;-73
2023/01/08 06:57:16;;;;;;;10.45;1.38;;;;;;;4.28;100.00;99125.09;5046225;28;20044;-73
2023/01/08 06:59:42;;;;;;;12.57;1.83;;;;;;;4.29;100.00;99117.66;5098799;28;20044;-73
2023/01/08 07:02:14;;;;;;;9.77;1.63;;;;;;;4.30;100.00;99111.06;5100801;28;20024;-72
2023/01/08 07:04:39;;;;;;;12.55;1.80;;;;;;;4.32;100.00;99106.09;5079298;28;20504;-73
2023/01/08 07:07:05;;;;;;;8.45;1.33;;;;;;;4.30;100.00;99111.06;5072732;28;20024;-73
2023/01/08 07:09:32;;;;;;;12.48;1.60;;;;;;;4.31;100.00;99102.53;5064755;28;20024;-73
2023/01/08 07:11:57;;;;;;;11.43;1.55;;;;;;;4.28;100.00;99094.84;5078837;28;20676;-73
2023/01/08 07:14:23;;;;;;;12.23;1.42;;;;;;;4.29;100.00;99096.50;5058263;28;20051;-73
2023/01/08 07:16:48;;;;;;;17.75;1.73;;;;;;;4.27;100.00;99101.47;5075307;28;20507;-72
2023/01/08 07:19:14;;;;;;;18.10;2.15;;;;;;;4.23;100.00;99093.00;5075469;28;20082;-72
2023/01/08 07:21:39;;;;;;;11.73;1.27;;;;;;;4.25;100.00;99082.50;5068561;28;20377;-73
2023/01/08 07:24:06;;;;;;;10.90;1.85;;;;;;;4.26;100.00;99088.81;5078158;28;20028;-73
2023/01/08 07:26:32;;;;;;;12.90;1.50;;;;;;;4.24;100.00;99091.88;5078638;28;20104;-73
2023/01/08 07:28:57;;;;;;;13.70;1.70;;;;;;;4.24;100.00;99091.88;5045026;28;20476;-72
2023/01/08 07:31:23;;;;;;;13.73;1.92;;;;;;;4.24;100.00;99096.56;5095362;28;20028;-72
2023/01/08 07:33:49;;;;;;;12.52;1.50;;;;;;;4.23;100.00;99095.75;5061774;28;20465;-73
2023/01/08 07:36:15;;;;;;;11.00;2.42;;;;;;;4.24;100.00;99096.56;5077966;28;20047;-73
2023/01/08 07:38:41;;;;;;;13.15;1.35;;;;;;;4.28;100.00;99100.34;5061422;28;20566;-73
2023/01/08 07:41:07;;;;;;;12.82;2.20;;;;;;;4.31;100.00;99102.53;5061006;28;20032;-72
2023/01/08 07:43:34;;;;;;;11.35;1.75;;;;;;;4.33;100.00;99091.25;5095901;28;20380;-73
2023/01/08 07:46:02;;;;;;;14.98;2.35;;;;;;;4.36;100.00;99083.25;5062131;28;20066;-73
2023/01/08 07:48:27;;;;;;;7.45;1.42;;;;;;;4.38;100.00;99080.22;5045143;28;20035;-73
2023/01/08 07:50:53;;;;;;;12.80;1.58;;;;;;;4.42;100.00;99082.09;5077866;28;20380;-73
2023/01/08 07:53:18;;;;;;;10.52;1.48;;;;;;;4.45;100.00;99070.50;5094858;28;20058;-73
2023/01/08 07:55:44;;;;;;;12.75;2.00;;;;;;;4.46;100.00;99055.69;5072465;28;20024;-73
2023/01/08 07:58:11;;;;;;;12.95;2.40;;;;;;;4.51;100.00;99057.53;5082023;28;20031;-73
2023/01/08 08:00:36;;;;;;;12.07;1.77;;;;;;;4.54;100.00;99050.63;5061190;28;20059;-72
2023/01/08 08:03:06;;;;;;;14.43;1.80;;;;;;;4.55;100.00;99055.88;5061278;28;20111;-72
2023/01/08 08:05:31;;;;;;;13.48;1.50;;;;;;;4.58;100.00;99047.03;5089373;28;20080;-72
2023/01/08 08:07:57;;;;;;;21.38;2.47;;;;;;;4.57;100.00;99048.16;5074634;28;20032;-73
2023/01/08 08:10:22;;;;;;;14.90;2.65;;;;;;;4.57;100.00;99036.31;5054574;28;20039;-72
2023/01/08 08:12:48;;;;;;;12.25;1.85;;;;;;;4.59;100.00;99034.91;5074158;28;20469;-72
2023/01/08 08:15:14;;;;;;;12.98;1.58;;;;;;;4.60;100.00;99042.06;5088101;28;20040;-72
2023/01/08 08:17:44;;;;;;;14.95;1.92;;;;;;;4.60;100.00;99033.00;5057661;28;20060;-72
2023/01/08 08:20:09;;;;;;;15.20;2.08;;;;;;;4.58;100.00;99035.22;5056669;28;20024;-72
2023/01/08 08:22:35;;;;;;;15.98;1.98;;;;;;;4.54;100.00;99028.66;5057703;28;20029;-72
2023/01/08 08:25:00;;;;;;;14.18;2.90;;;;;;;4.57;100.00;99028.91;5038949;28;20028;-72
2023/01/08 08:27:26;;;;;;;14.82;2.05;;;;;;;4.59;100.00;99023.09;5043928;28;20051;-72
2023/01/08 08:29:51;;;;;;;15.30;2.22;;;;;;;4.59;100.00;99017.59;5061091;28;20028;-72
2023/01/08 08:32:17;;;;;;;15.80;2.05;;;;;;;4.57;100.00;99019.81;5038861;28;20042;-72
2023/01/08 08:34:42;;;;;;;15.98;1.77;;;;;;;4.57;100.00;99009.66;5060506;28;20028;-72
2023/01/08 08:37:08;;;;;;;17.08;2.35;;;;;;;4.59;100.00;99006.59;5060306;28;20055;-72
2023/01/08 08:39:33;;;;;;;11.32;1.42;;;;;;;4.60;100.00;99006.31;5057317;28;20070;-72
2023/01/08 08:41:59;;;;;;;17.65;2.33;;;;;;;4.62;100.00;99006.84;5043181;28;20028;-72
2023/01/08 08:44:24;;;;;;;13.25;1.63;;;;;;;4.66;100.00;99001.59;5094033;28;20032;-72
2023/01/08 08:46:50;;;;;;;16.05;2.47;;;;;;;4.67;100.00;98993.03;5057198;28;20052;-72
2023/01/08 08:49:15;;;;;;;16.10;2.25;;;;;;;4.69;100.00;98999.06;5072310;28;20090;-72
2023/01/08 08:51:41;;;;;;;17.42;2.22;;;;;;;4.78;100.00;99001.19;5092719;28;20016;-73
2023/01/08 08:54:06;;;;;;;21.33;2.58;;;;;;;4.78;100.00;98988.25;5069981;28;20029;-73
2023/01/08 08:56:32;;;;;;;21.77;3.42;;;;;;;4.79;100.00;98992.66;5080214;28;20438;-72
2023/01/08 08:58:57;;;;;;;15.38;2.40;;;;;;;4.79;100.00;98992.66;5080886;28;20024;-72
2023/01/08 09:01:23;;;;;;;14.77;2.35;;;;;;;4.83;100.00;98987.38;5079605;28;20032;-72
2023/01/08 09:03:49;;;;;;;20.17;2.15;;;;;;;4.82;100.00;98991.22;5056814;28;20033;-72
2023/01/08 09:06:14;;;;;;;13.57;2.88;;;;;;;4.84;100.00;98994.50;5063211;28;20035;-72
2023/01/08 09:08:40;;;;;;;18.75;2.47;;;;;;;4.86;100.00;99000.53;5064669;28;20028;-72
2023/01/08 09:11:05;;;;;;;20.80;2.60;;;;;;;4.90;100.00;98996.91;5064220;28;20027;-72
2023/01/08 09:13:31;;;;;;;20.85;2.28;;;;;;;4.91;100.00;98989.47;5080731;28;20024;-72
2023/01/08 09:15:59;;;;;;;13.65;2.35;;;;;;;4.92;100.00;98991.91;5047612;28;20035;-72
2023/01/08 09:18:25;;;;;;;14.38;2.25;;;;;;;4.97;100.00;98991.03;5064264;28;20028;-72
2023/01/08 09:20:50;;;;;;;20.85;3.28;;;;;;;4.99;100.00;98994.31;5078306;28;20078;-72
2023/01/08 09:23:16;;;;;;;21.58;2.92;;;;;;;5.05;100.00;98995.09;5095343;28;20077;-72
2023/01/08 09:25:41;;;;;;;17.05;2.63;;;;;;;5.12;100.00;98990.84;5060544;28;20059;-72
2023/01/08 09:28:10;;;;;;;17.48;1.90;;;;;;;5.21;100.00;98998.44;5091120;28;20028;-72
2023/01/08 09:30:36;;;;;;;20.48;2.83;;;;;;;5.27;100.00;98986.28;5068298;28;20047;-72
2023/01/08 09:33:02;;;;;;;16.92;2.13;;;;;;;5.38;100.00;98991.31;5084645;28;20099;-72
2023/01/08 09:35:27;;;;;;;20.70;2.72;;;;;;;5.47;100.00;98988.72;5096911;28;20032;-72
2023/01/08 09:37:53;;;;;;;22.65;2.72;;;;;;;5.55;100.00;98982.53;5078475;28;20054;-72
2023/01/08 09:40:20;;;;;;;20.90;2.97;;;;;;;5.67;100.00;98989.53;5093126;28;20472;-72
2023/01/08 09:42:49;;;;;;;22.67;3.25;;;;;;;5.76;100.00;98993.25;5075336;28;20047;-72
2023/01/08 09:45:32;;;;;;;20.70;2.55;;;;;;;5.86;100.00;98993.09;5079374;28;20039;-72
2023/01/08 09:47:58;;;;;;;;;;;;;;;5.95;100.00;98996.00;5056590;28;20054;-72
2023/01/08 09:50:24;;;;;;;27.90;2.75;;;;;;;6.04;100.00;99000.56;5072337;28;19958;-72
2023/01/08 09:52:50;;;;;;;21.23;2.83;;;;;;;6.12;100.00;98996.28;5063276;28;20027;-72
2023/01/08 09:55:16;;;;;;;21.48;2.90;;;;;;;6.23;100.00;98999.69;5079821;28;20036;-72
2023/01/08 09:57:42;;;;;;;22.00;2.53;;;;;;;6.33;100.00;98996.75;5078004;28;20115;-72
2023/01/08 10:00:20;;;;;;;16.52;2.63;;;;;;;6.42;100.00;98992.16;5072966;28;20028;-72
2023/01/08 10:02:46;;;;;;;19.63;2.38;;;;;;;6.55;100.00;98998.84;5059631;28;20381;-72
2023/01/08 10:05:13;;;;;;;25.65;3.58;;;;;;;6.63;100.00;99000.91;5058072;28;20028;-72
2023/01/08 10:07:39;;;;;;;21.00;2.60;;;;;;;6.72;100.00;98993.53;5063036;28;20038;-72
2023/01/08 10:10:05;;;;;;;24.80;2.38;;;;;;;6.85;100.00;98991.91;5079366;28;20484;-73
2023/01/08 10:12:31;;;;;;;16.90;2.30;;;;;;;6.97;100.00;98982.31;5079157;28;20028;-72
2023/01/08 10:15:07;;;;;;;23.60;3.15;;;;;;;7.12;100.00;98993.03;5062619;28;20024;-72
2023/01/08 10:17:40;;;;;;;18.95;2.65;;;;;;;7.22;100.00;98984.53;5062632;28;20039;-72
2023/01/08 10:20:18;;;;;;;25.67;2.80;;;;;;;7.32;100.00;98978.75;5058796;28;20040;-72
2023/01/08 10:22:43;;;;;;;24.50;2.80;;;;;;;7.43;100.00;98979.38;5063099;28;20033;-73
2023/01/08 10:25:17;;;;;;;20.77;2.95;;;;;;;7.55;100.00;98979.66;5090912;28;20066;-72
2023/01/08 10:27:47;;;;;;;19.83;2.83;;;;;;;7.64;100.00;98974.19;5046608;28;20035;-72
2023/01/08 10:30:18;;;;;;;26.15;2.85;;;;;;;7.75;100.00;98963.72;5079077;28;20038;-72
2023/01/08 10:32:53;;;;;;;16.85;2.53;;;;;;;7.81;100.00;98968.81;5078782;28;20492;-73
2023/01/08 10:35:20;;;;;;;21.17;2.88;;;;;;;7.87;100.00;98946.56;5062392;28;20040;-73
2023/01/08 10:37:46;;;;;;;18.05;2.90;;;;;;;7.96;100.00;98933.63;5095522;28;20044;-73
2023/01/08 10:40:38;;;;;;;23.52;2.88;;;;;;;8.05;100.00;98928.97;5095925;28;20032;-68
2023/01/08 10:43:13;;;;;;;16.83;2.22;;;;;;;8.13;100.00;98933.72;5093274;28;20465;-68
2023/01/08 10:45:40;;;;;;;18.02;2.92;;;;;;;8.24;100.00;98929.56;5079394;28;20031;-72
2023/01/08 10:48:06;;;;;;;23.95;2.85;;;;;;;8.33;100.00;98924.09;5075409;28;20537;-72
2023/01/08 10:50:33;;;;;;;21.52;2.80;;;;;;;8.41;100.00;98917.81;5070175;28;20028;-72
2023/01/08 10:53:03;;;;;;;21.70;3.03;;;;;;;8.49;100.00;98914.25;5061021;28;20044;-68
2023/01/08 10:55:31;;;;;;;21.08;3.05;;;;;;;8.57;100.00;98900.78;5054290;28;20109;-72
2023/01/08 10:58:01;;;;;;;16.50;2.63;;;;;;;8.65;100.00;98892.50;5078364;28;20039;-72
2023/01/08 11:00:28;;;;;;;16.27;2.55;;;;;;;8.72;100.00;98881.81;5078796;28;20028;-72
2023/01/08 11:02:55;;;;;;;20.58;2.65;;;;;;;8.79;100.00;98881.31;5095354;28;20028;-72
2023/01/08 11:05:31;;;;;;;25.05;2.95;;;;;;;8.85;100.00;98879.22;5096407;28;20039;-72
2023/01/08 11:07:58;;;;;;;17.63;2.05;;;;;;;8.89;100.00;98872.72;5075295;28;20028;-72
2023/01/08 11:10:25;;;;;;;16.02;2.38;;;;;;;8.94;100.00;98858.72;5072954;28;20038;-72
2023/01/08 11:12:55;;;;;;;18.63;2.45;;;;;;;8.99;100.00;98863.28;5077969;28;20024;-72
2023/01/08 11:15:20;;;;;;;21.00;2.72;;;;;;;9.05;100.00;98861.97;5061455;28;20073;-72
2023/01/08 11:17:46;;;;;;;15.93;2.45;;;;;;;9.10;100.00;98849.94;5095988;28;20032;-72
2023/01/08 11:20:19;;;;;;;12.70;2.30;;;;;;;9.13;100.00;98841.78;5094985;28;20054;-72
2023/01/08 11:22:44;;;;;;;15.40;2.40;;;;;;;9.15;100.00;98828.44;5074600;28;20038;-72
2023/01/08 11:25:24;;;;;;;14.30;2.40;;;;;;;9.18;100.00;98827.78;5057229;28;20523;-72
2023/01/08 11:27:50;;;;;;;23.00;2.40;;;;;;;9.21;100.00;98837.38;5061239;28;20461;-73
2023/01/08 11:30:21;;;;;;;18.92;1.98;;;;;;;9.23;100.00;98835.13;5045006;28;20058;-72